Leola, Pennsylvania
Current Conditions -  °F | °C
As of 2:53 AM on Tuesday 27 Jan 2015 (Local Time) from KLNS Reporting Station
Overcast Overcast  
Wind Chill: 16°   Ceiling: 3800
Heat Index: 26°   Visibility: 10mi
Dew Point: 19°   Wind: 10mph
Humidity: 75%   Direction: 330°NNW
Pressure: 29.73"   Gusts: NA
Location:  40.09°N, 76.18°W
Report Text: KLNS 270753Z 33009KT 10SM SCT030 OVC038 M03/M07 A2973 RMK AO2 SLP073 T10331072
Loading
Personal Weather Stations






























Interactive Weather Map New forecast layout! Learn more

10-Day Weather Forecast

Advertisements
Track Severe Weather on mobile